Main page
METAR-TAF:

METAR-TAF

Airports :

Cazaux Air Base

Cazaux, France

latitude: 44-32N, longitude: 001-08W, elevation: 25 m

Current weather observation

The report was made 39 minutes ago, at 06:30 UTC
Wind 6 kt from the West/Southwest
Temperature 23°C
Humidity 78%
Pressure 1012 hPa
Visibility 10 km or more
Overcast at a height of 1700 ft

METAR: LFBC 130630Z AUTO 24006KT 9999 OVC017 23/19 Q1012

Time: 09:09 (07:09 UTC)

Forecast

The report was made 23 hours and 9 minutes ago, at 08:00 UTC
Forecast valid from 12 at 09 UTC to 13 at 09 UTC
Wind 8 kt from the West
Visibility 10 km or more
no clouds below 1500 m and no cumulonimbus
Temporary
from 12 at 22 UTC to 13 at 07 UTC
Broken clouds at a height of 900 ft

TAF: LFBC 120800Z 1209/1309 26008KT CAVOK TEMPO 1222/1307 BKN009

Weather observations and forecasts of more than 4000 airports (METAR and TAF reports).

The available stations are represented by yellow and red dots on the map.

Hover mouse over dot to see the name of the station.

Then click to see weather observations and forecasts.

To change the map : click on the green buttons with a black cross to zoom in, on the green button with a dash to zoom out, or on the green arrows for adjacent maps.


METAR-TAF: